sensor_id;sensor_type;location;lat;lon;timestamp;P1;durP1;ratioP1;P2;durP2;ratioP2
75898;SDS011;64576;50.460;4.866;2023-06-26T00:00:02;8.95;;;5.75;;
75898;SDS011;64576;50.460;4.866;2023-06-26T00:02:29;9.23;;;5.53;;
75898;SDS011;64576;50.460;4.866;2023-06-26T00:04:57;8.65;;;5.30;;
75898;SDS011;64576;50.460;4.866;2023-06-26T00:07:23;7.25;;;5.15;;
75898;SDS011;64576;50.460;4.866;2023-06-26T00:09:48;7.15;;;5.18;;
75898;SDS011;64576;50.460;4.866;2023-06-26T00:12:14;8.82;;;5.03;;
75898;SDS011;64576;50.460;4.866;2023-06-26T00:14:39;7.68;;;5.00;;
75898;SDS011;64576;50.460;4.866;2023-06-26T00:17:04;11.18;;;6.00;;
75898;SDS011;64576;50.460;4.866;2023-06-26T00:19:30;9.13;;;5.45;;
75898;SDS011;64576;50.460;4.866;2023-06-26T00:21:55;9.88;;;5.28;;
75898;SDS011;64576;50.460;4.866;2023-06-26T00:24:20;9.15;;;6.07;;
75898;SDS011;64576;50.460;4.866;2023-06-26T00:26:46;8.05;;;4.80;;
75898;SDS011;64576;50.460;4.866;2023-06-26T00:29:12;9.90;;;6.15;;
75898;SDS011;64576;50.460;4.866;2023-06-26T00:31:38;9.48;;;6.00;;
75898;SDS011;64576;50.460;4.866;2023-06-26T00:34:05;7.28;;;5.03;;
75898;SDS011;64576;50.460;4.866;2023-06-26T00:36:30;8.63;;;5.60;;
75898;SDS011;64576;50.460;4.866;2023-06-26T00:38:56;7.75;;;4.85;;
75898;SDS011;64576;50.460;4.866;2023-06-26T00:41:21;10.23;;;4.35;;
75898;SDS011;64576;50.460;4.866;2023-06-26T00:43:46;7.72;;;4.35;;
75898;SDS011;64576;50.460;4.866;2023-06-26T00:46:12;7.40;;;4.13;;
75898;SDS011;64576;50.460;4.866;2023-06-26T00:48:39;7.70;;;4.15;;
75898;SDS011;64576;50.460;4.866;2023-06-26T00:51:07;7.35;;;3.95;;
75898;SDS011;64576;50.460;4.866;2023-06-26T00:53:33;7.60;;;4.53;;
75898;SDS011;64576;50.460;4.866;2023-06-26T00:55:59;8.43;;;5.05;;
75898;SDS011;64576;50.460;4.866;2023-06-26T00:58:27;8.95;;;4.47;;
75898;SDS011;64576;50.460;4.866;2023-06-26T01:00:52;9.23;;;4.20;;
75898;SDS011;64576;50.460;4.866;2023-06-26T01:03:18;8.60;;;4.45;;
75898;SDS011;64576;50.460;4.866;2023-06-26T01:05:44;10.73;;;4.25;;
75898;SDS011;64576;50.460;4.866;2023-06-26T01:08:11;8.07;;;3.80;;
75898;SDS011;64576;50.460;4.866;2023-06-26T01:10:38;6.90;;;3.80;;
75898;SDS011;64576;50.460;4.866;2023-06-26T01:13:04;11.05;;;3.92;;
75898;SDS011;64576;50.460;4.866;2023-06-26T01:15:30;8.07;;;3.72;;
75898;SDS011;64576;50.460;4.866;2023-06-26T01:17:55;8.90;;;3.78;;
75898;SDS011;64576;50.460;4.866;2023-06-26T01:20:25;8.57;;;3.78;;
75898;SDS011;64576;50.460;4.866;2023-06-26T01:25:20;6.55;;;3.78;;
75898;SDS011;64576;50.460;4.866;2023-06-26T01:27:54;8.40;;;4.38;;
75898;SDS011;64576;50.460;4.866;2023-06-26T01:30:21;9.10;;;3.97;;
75898;SDS011;64576;50.460;4.866;2023-06-26T01:32:47;8.30;;;3.75;;
75898;SDS011;64576;50.460;4.866;2023-06-26T01:35:13;8.13;;;3.95;;
75898;SDS011;64576;50.460;4.866;2023-06-26T01:37:40;8.55;;;4.55;;
75898;SDS011;64576;50.460;4.866;2023-06-26T01:40:05;9.07;;;4.18;;
75898;SDS011;64576;50.460;4.866;2023-06-26T01:42:33;7.38;;;3.45;;
75898;SDS011;64576;50.460;4.866;2023-06-26T01:45:02;9.05;;;5.22;;
75898;SDS011;64576;50.460;4.866;2023-06-26T01:47:37;9.85;;;4.93;;
75898;SDS011;64576;50.460;4.866;2023-06-26T01:50:06;7.88;;;4.55;;
75898;SDS011;64576;50.460;4.866;2023-06-26T01:58:04;6.95;;;3.70;;
75898;SDS011;64576;50.460;4.866;2023-06-26T02:00:29;7.35;;;3.50;;
75898;SDS011;64576;50.460;4.866;2023-06-26T02:02:57;10.48;;;3.80;;
75898;SDS011;64576;50.460;4.866;2023-06-26T02:05:22;7.30;;;3.63;;
75898;SDS011;64576;50.460;4.866;2023-06-26T02:07:49;6.10;;;3.03;;
75898;SDS011;64576;50.460;4.866;2023-06-26T02:10:14;9.82;;;3.78;;
75898;SDS011;64576;50.460;4.866;2023-06-26T02:12:40;10.27;;;3.58;;
75898;SDS011;64576;50.460;4.866;2023-06-26T02:15:06;6.88;;;3.38;;
75898;SDS011;64576;50.460;4.866;2023-06-26T02:17:31;6.30;;;2.47;;
75898;SDS011;64576;50.460;4.866;2023-06-26T02:19:57;8.75;;;3.50;;
75898;SDS011;64576;50.460;4.866;2023-06-26T02:22:22;7.50;;;3.13;;
75898;SDS011;64576;50.460;4.866;2023-06-26T02:24:48;7.55;;;3.08;;
75898;SDS011;64576;50.460;4.866;2023-06-26T02:27:13;6.78;;;2.83;;
75898;SDS011;64576;50.460;4.866;2023-06-26T02:29:39;9.05;;;3.67;;
75898;SDS011;64576;50.460;4.866;2023-06-26T02:32:05;6.78;;;3.72;;
75898;SDS011;64576;50.460;4.866;2023-06-26T02:34:31;7.68;;;3.50;;
75898;SDS011;64576;50.460;4.866;2023-06-26T02:36:57;7.43;;;3.20;;
75898;SDS011;64576;50.460;4.866;2023-06-26T02:39:23;7.90;;;3.92;;
75898;SDS011;64576;50.460;4.866;2023-06-26T02:41:49;8.52;;;3.72;;
75898;SDS011;64576;50.460;4.866;2023-06-26T02:44:14;7.00;;;3.67;;
75898;SDS011;64576;50.460;4.866;2023-06-26T02:46:40;9.40;;;3.92;;
75898;SDS011;64576;50.460;4.866;2023-06-26T02:49:05;10.18;;;3.10;;
75898;SDS011;64576;50.460;4.866;2023-06-26T02:51:32;8.77;;;3.42;;
75898;SDS011;64576;50.460;4.866;2023-06-26T02:53:58;8.55;;;3.80;;
75898;SDS011;64576;50.460;4.866;2023-06-26T02:56:23;9.80;;;3.88;;
75898;SDS011;64576;50.460;4.866;2023-06-26T02:58:49;8.80;;;3.72;;
75898;SDS011;64576;50.460;4.866;2023-06-26T03:01:14;7.65;;;4.15;;
75898;SDS011;64576;50.460;4.866;2023-06-26T03:03:40;10.13;;;3.78;;
75898;SDS011;64576;50.460;4.866;2023-06-26T03:06:06;10.30;;;3.92;;
75898;SDS011;64576;50.460;4.866;2023-06-26T03:08:33;9.23;;;4.65;;
75898;SDS011;64576;50.460;4.866;2023-06-26T03:11:01;10.55;;;3.90;;
75898;SDS011;64576;50.460;4.866;2023-06-26T03:13:26;10.65;;;5.30;;
75898;SDS011;64576;50.460;4.866;2023-06-26T03:15:52;8.38;;;3.53;;
75898;SDS011;64576;50.460;4.866;2023-06-26T03:18:17;9.25;;;3.97;;
75898;SDS011;64576;50.460;4.866;2023-06-26T03:20:42;9.95;;;4.15;;
75898;SDS011;64576;50.460;4.866;2023-06-26T03:23:08;9.38;;;4.03;;
75898;SDS011;64576;50.460;4.866;2023-06-26T03:25:33;9.82;;;4.57;;
75898;SDS011;64576;50.460;4.866;2023-06-26T03:27:58;9.43;;;4.10;;
75898;SDS011;64576;50.460;4.866;2023-06-26T03:30:24;9.57;;;3.47;;
75898;SDS011;64576;50.460;4.866;2023-06-26T03:32:49;11.65;;;4.55;;
75898;SDS011;64576;50.460;4.866;2023-06-26T03:35:14;8.57;;;4.03;;
75898;SDS011;64576;50.460;4.866;2023-06-26T03:37:40;8.27;;;4.20;;
75898;SDS011;64576;50.460;4.866;2023-06-26T03:40:05;10.32;;;3.97;;
75898;SDS011;64576;50.460;4.866;2023-06-26T03:42:31;9.77;;;4.07;;
75898;SDS011;64576;50.460;4.866;2023-06-26T03:44:57;7.88;;;3.70;;
75898;SDS011;64576;50.460;4.866;2023-06-26T03:47:22;8.60;;;3.45;;
75898;SDS011;64576;50.460;4.866;2023-06-26T03:49:47;10.63;;;4.20;;
75898;SDS011;64576;50.460;4.866;2023-06-26T03:52:13;11.43;;;4.43;;
75898;SDS011;64576;50.460;4.866;2023-06-26T03:54:38;9.57;;;4.10;;
75898;SDS011;64576;50.460;4.866;2023-06-26T03:57:03;10.35;;;4.47;;
75898;SDS011;64576;50.460;4.866;2023-06-26T03:59:29;11.40;;;4.25;;
75898;SDS011;64576;50.460;4.866;2023-06-26T04:01:54;13.95;;;4.70;;
75898;SDS011;64576;50.460;4.866;2023-06-26T04:04:20;10.85;;;4.13;;
75898;SDS011;64576;50.460;4.866;2023-06-26T04:06:45;12.00;;;4.43;;
75898;SDS011;64576;50.460;4.866;2023-06-26T04:09:11;13.80;;;4.35;;
75898;SDS011;64576;50.460;4.866;2023-06-26T04:11:38;12.05;;;6.07;;
75898;SDS011;64576;50.460;4.866;2023-06-26T04:14:03;14.35;;;5.40;;
75898;SDS011;64576;50.460;4.866;2023-06-26T04:16:29;12.88;;;5.32;;
75898;SDS011;64576;50.460;4.866;2023-06-26T04:18:54;13.80;;;4.97;;
75898;SDS011;64576;50.460;4.866;2023-06-26T04:21:21;13.98;;;4.72;;
75898;SDS011;64576;50.460;4.866;2023-06-26T04:23:49;17.52;;;4.63;;
75898;SDS011;64576;50.460;4.866;2023-06-26T04:26:15;10.73;;;4.47;;
75898;SDS011;64576;50.460;4.866;2023-06-26T04:28:40;10.57;;;4.70;;
75898;SDS011;64576;50.460;4.866;2023-06-26T04:31:06;10.98;;;4.85;;
75898;SDS011;64576;50.460;4.866;2023-06-26T04:33:32;10.65;;;5.03;;
75898;SDS011;64576;50.460;4.866;2023-06-26T04:35:57;11.32;;;4.90;;
75898;SDS011;64576;50.460;4.866;2023-06-26T04:38:23;10.23;;;4.40;;
75898;SDS011;64576;50.460;4.866;2023-06-26T04:40:48;14.00;;;5.30;;
75898;SDS011;64576;50.460;4.866;2023-06-26T04:43:14;15.30;;;6.82;;
75898;SDS011;64576;50.460;4.866;2023-06-26T04:45:40;13.57;;;4.05;;
75898;SDS011;64576;50.460;4.866;2023-06-26T04:48:05;11.45;;;5.00;;
75898;SDS011;64576;50.460;4.866;2023-06-26T04:50:34;13.68;;;5.63;;
75898;SDS011;64576;50.460;4.866;2023-06-26T04:53:00;10.60;;;4.53;;
75898;SDS011;64576;50.460;4.866;2023-06-26T04:55:25;12.65;;;4.03;;
75898;SDS011;64576;50.460;4.866;2023-06-26T04:57:51;14.23;;;4.85;;
75898;SDS011;64576;50.460;4.866;2023-06-26T05:00:17;11.43;;;5.35;;
75898;SDS011;64576;50.460;4.866;2023-06-26T05:02:43;11.05;;;3.72;;
75898;SDS011;64576;50.460;4.866;2023-06-26T05:05:09;12.18;;;4.70;;
75898;SDS011;64576;50.460;4.866;2023-06-26T05:07:35;14.07;;;4.32;;
75898;SDS011;64576;50.460;4.866;2023-06-26T05:10:01;8.73;;;3.95;;
75898;SDS011;64576;50.460;4.866;2023-06-26T05:12:26;8.40;;;3.83;;
75898;SDS011;64576;50.460;4.866;2023-06-26T05:14:51;10.88;;;4.22;;
75898;SDS011;64576;50.460;4.866;2023-06-26T05:17:17;10.30;;;4.03;;
75898;SDS011;64576;50.460;4.866;2023-06-26T05:19:42;12.77;;;3.67;;
75898;SDS011;64576;50.460;4.866;2023-06-26T05:22:08;12.63;;;4.10;;
75898;SDS011;64576;50.460;4.866;2023-06-26T05:24:35;9.15;;;3.22;;
75898;SDS011;64576;50.460;4.866;2023-06-26T05:27:01;7.32;;;3.60;;
75898;SDS011;64576;50.460;4.866;2023-06-26T05:29:27;12.00;;;3.80;;
75898;SDS011;64576;50.460;4.866;2023-06-26T05:31:54;9.98;;;3.50;;
75898;SDS011;64576;50.460;4.866;2023-06-26T05:34:21;10.05;;;3.67;;
75898;SDS011;64576;50.460;4.866;2023-06-26T05:36:50;10.38;;;3.28;;
75898;SDS011;64576;50.460;4.866;2023-06-26T05:39:16;9.82;;;3.83;;
75898;SDS011;64576;50.460;4.866;2023-06-26T05:41:45;10.57;;;3.97;;
75898;SDS011;64576;50.460;4.866;2023-06-26T05:44:11;9.77;;;4.03;;
75898;SDS011;64576;50.460;4.866;2023-06-26T05:46:36;8.30;;;2.70;;
75898;SDS011;64576;50.460;4.866;2023-06-26T05:49:01;9.60;;;3.72;;
75898;SDS011;64576;50.460;4.866;2023-06-26T05:51:27;11.77;;;3.33;;
75898;SDS011;64576;50.460;4.866;2023-06-26T05:53:53;9.20;;;3.95;;
75898;SDS011;64576;50.460;4.866;2023-06-26T05:56:19;16.23;;;5.35;;
75898;SDS011;64576;50.460;4.866;2023-06-26T05:58:45;8.77;;;3.10;;
75898;SDS011;64576;50.460;4.866;2023-06-26T06:01:11;9.10;;;3.00;;
75898;SDS011;64576;50.460;4.866;2023-06-26T06:03:36;6.72;;;3.00;;
75898;SDS011;64576;50.460;4.866;2023-06-26T06:06:03;9.20;;;2.80;;
75898;SDS011;64576;50.460;4.866;2023-06-26T06:08:29;8.82;;;3.13;;
75898;SDS011;64576;50.460;4.866;2023-06-26T06:10:54;9.77;;;2.95;;
75898;SDS011;64576;50.460;4.866;2023-06-26T06:13:19;7.93;;;3.20;;
75898;SDS011;64576;50.460;4.866;2023-06-26T06:15:45;8.10;;;3.20;;
75898;SDS011;64576;50.460;4.866;2023-06-26T06:18:10;7.97;;;3.00;;
75898;SDS011;64576;50.460;4.866;2023-06-26T06:20:35;8.32;;;2.80;;
75898;SDS011;64576;50.460;4.866;2023-06-26T06:23:01;10.20;;;3.03;;
75898;SDS011;64576;50.460;4.866;2023-06-26T06:25:26;12.27;;;3.03;;
75898;SDS011;64576;50.460;4.866;2023-06-26T06:27:52;8.50;;;3.10;;
75898;SDS011;64576;50.460;4.866;2023-06-26T06:30:17;8.18;;;2.47;;
75898;SDS011;64576;50.460;4.866;2023-06-26T06:32:43;8.48;;;3.70;;
75898;SDS011;64576;50.460;4.866;2023-06-26T06:35:08;9.40;;;3.28;;
75898;SDS011;64576;50.460;4.866;2023-06-26T06:37:37;8.25;;;3.13;;
75898;SDS011;64576;50.460;4.866;2023-06-26T06:40:04;10.27;;;3.85;;
75898;SDS011;64576;50.460;4.866;2023-06-26T06:42:31;7.53;;;2.20;;
75898;SDS011;64576;50.460;4.866;2023-06-26T06:44:57;7.95;;;2.83;;
75898;SDS011;64576;50.460;4.866;2023-06-26T06:47:23;8.65;;;2.85;;
75898;SDS011;64576;50.460;4.866;2023-06-26T06:49:48;10.27;;;2.60;;
75898;SDS011;64576;50.460;4.866;2023-06-26T06:52:13;9.95;;;2.97;;
75898;SDS011;64576;50.460;4.866;2023-06-26T06:54:52;7.18;;;2.65;;
75898;SDS011;64576;50.460;4.866;2023-06-26T06:57:23;7.60;;;2.33;;
75898;SDS011;64576;50.460;4.866;2023-06-26T06:59:49;6.75;;;2.47;;
75898;SDS011;64576;50.460;4.866;2023-06-26T07:02:17;6.47;;;2.80;;
75898;SDS011;64576;50.460;4.866;2023-06-26T07:04:43;8.20;;;2.95;;
75898;SDS011;64576;50.460;4.866;2023-06-26T07:07:08;8.55;;;2.15;;
75898;SDS011;64576;50.460;4.866;2023-06-26T07:09:34;6.60;;;2.00;;
75898;SDS011;64576;50.460;4.866;2023-06-26T07:12:00;8.00;;;2.63;;
75898;SDS011;64576;50.460;4.866;2023-06-26T07:14:25;7.75;;;2.65;;
75898;SDS011;64576;50.460;4.866;2023-06-26T07:16:52;8.70;;;2.58;;
75898;SDS011;64576;50.460;4.866;2023-06-26T07:19:17;8.32;;;2.33;;
75898;SDS011;64576;50.460;4.866;2023-06-26T07:21:43;7.80;;;2.42;;
75898;SDS011;64576;50.460;4.866;2023-06-26T07:24:09;8.13;;;2.28;;
75898;SDS011;64576;50.460;4.866;2023-06-26T07:26:35;5.82;;;2.13;;
75898;SDS011;64576;50.460;4.866;2023-06-26T07:29:01;5.20;;;2.00;;
75898;SDS011;64576;50.460;4.866;2023-06-26T07:31:26;4.03;;;1.65;;
75898;SDS011;64576;50.460;4.866;2023-06-26T07:33:51;7.90;;;2.47;;
75898;SDS011;64576;50.460;4.866;2023-06-26T07:36:17;5.70;;;1.80;;
75898;SDS011;64576;50.460;4.866;2023-06-26T07:38:42;5.50;;;2.58;;
75898;SDS011;64576;50.460;4.866;2023-06-26T07:41:07;11.07;;;3.78;;
75898;SDS011;64576;50.460;4.866;2023-06-26T07:43:33;4.78;;;2.35;;
75898;SDS011;64576;50.460;4.866;2023-06-26T07:45:58;7.80;;;1.92;;
75898;SDS011;64576;50.460;4.866;2023-06-26T07:48:24;6.75;;;2.15;;
75898;SDS011;64576;50.460;4.866;2023-06-26T07:50:50;7.28;;;2.25;;
75898;SDS011;64576;50.460;4.866;2023-06-26T07:53:15;6.00;;;2.22;;
75898;SDS011;64576;50.460;4.866;2023-06-26T07:55:41;10.55;;;2.42;;
75898;SDS011;64576;50.460;4.866;2023-06-26T07:58:07;8.60;;;2.50;;
75898;SDS011;64576;50.460;4.866;2023-06-26T08:00:32;7.78;;;2.70;;
75898;SDS011;64576;50.460;4.866;2023-06-26T08:02:58;8.05;;;2.25;;
75898;SDS011;64576;50.460;4.866;2023-06-26T08:05:23;6.97;;;2.38;;
75898;SDS011;64576;50.460;4.866;2023-06-26T08:07:49;4.78;;;1.60;;
75898;SDS011;64576;50.460;4.866;2023-06-26T08:10:14;5.13;;;1.73;;
75898;SDS011;64576;50.460;4.866;2023-06-26T08:12:39;5.53;;;2.60;;
75898;SDS011;64576;50.460;4.866;2023-06-26T08:15:07;4.25;;;1.30;;
75898;SDS011;64576;50.460;4.866;2023-06-26T08:17:34;5.57;;;2.08;;
75898;SDS011;64576;50.460;4.866;2023-06-26T08:20:01;7.65;;;2.05;;
75898;SDS011;64576;50.460;4.866;2023-06-26T08:22:26;6.20;;;2.22;;
75898;SDS011;64576;50.460;4.866;2023-06-26T08:24:52;7.68;;;2.22;;
75898;SDS011;64576;50.460;4.866;2023-06-26T08:27:17;4.50;;;1.85;;
75898;SDS011;64576;50.460;4.866;2023-06-26T08:29:43;6.80;;;1.92;;
75898;SDS011;64576;50.460;4.866;2023-06-26T08:32:08;4.95;;;2.03;;
75898;SDS011;64576;50.460;4.866;2023-06-26T08:34:33;8.57;;;2.13;;
75898;SDS011;64576;50.460;4.866;2023-06-26T08:36:59;4.68;;;1.40;;
75898;SDS011;64576;50.460;4.866;2023-06-26T08:39:24;6.47;;;1.90;;
75898;SDS011;64576;50.460;4.866;2023-06-26T08:41:49;5.35;;;1.98;;
75898;SDS011;64576;50.460;4.866;2023-06-26T08:44:15;5.85;;;1.70;;
75898;SDS011;64576;50.460;4.866;2023-06-26T08:46:41;5.20;;;1.65;;
75898;SDS011;64576;50.460;4.866;2023-06-26T08:52:13;3.47;;;1.52;;
75898;SDS011;64576;50.460;4.866;2023-06-26T08:54:45;5.90;;;2.17;;
75898;SDS011;64576;50.460;4.866;2023-06-26T08:57:12;6.45;;;2.05;;
75898;SDS011;64576;50.460;4.866;2023-06-26T08:59:41;4.15;;;1.75;;
75898;SDS011;64576;50.460;4.866;2023-06-26T09:02:06;3.20;;;1.50;;
75898;SDS011;64576;50.460;4.866;2023-06-26T09:04:32;4.50;;;1.30;;
75898;SDS011;64576;50.460;4.866;2023-06-26T09:06:58;4.75;;;1.55;;
75898;SDS011;64576;50.460;4.866;2023-06-26T09:09:23;4.93;;;1.40;;
75898;SDS011;64576;50.460;4.866;2023-06-26T09:11:48;4.20;;;1.73;;
75898;SDS011;64576;50.460;4.866;2023-06-26T09:14:14;5.78;;;2.40;;
75898;SDS011;64576;50.460;4.866;2023-06-26T09:16:40;5.20;;;1.33;;
75898;SDS011;64576;50.460;4.866;2023-06-26T09:19:08;5.15;;;2.13;;
75898;SDS011;64576;50.460;4.866;2023-06-26T09:21:36;5.20;;;1.95;;
75898;SDS011;64576;50.460;4.866;2023-06-26T09:24:02;3.92;;;1.30;;
75898;SDS011;64576;50.460;4.866;2023-06-26T09:26:27;4.47;;;1.80;;
75898;SDS011;64576;50.460;4.866;2023-06-26T09:28:53;2.45;;;1.38;;
75898;SDS011;64576;50.460;4.866;2023-06-26T09:31:18;5.22;;;1.98;;
75898;SDS011;64576;50.460;4.866;2023-06-26T09:33:46;3.58;;;1.30;;
75898;SDS011;64576;50.460;4.866;2023-06-26T09:36:19;4.57;;;1.50;;
75898;SDS011;64576;50.460;4.866;2023-06-26T09:38:49;4.10;;;1.52;;
75898;SDS011;64576;50.460;4.866;2023-06-26T09:41:16;3.03;;;1.15;;
75898;SDS011;64576;50.460;4.866;2023-06-26T09:43:49;6.45;;;1.48;;
75898;SDS011;64576;50.460;4.866;2023-06-26T09:49:00;3.40;;;1.30;;
75898;SDS011;64576;50.460;4.866;2023-06-26T09:51:35;5.97;;;2.05;;
75898;SDS011;64576;50.460;4.866;2023-06-26T09:54:01;12.93;;;2.25;;
75898;SDS011;64576;50.460;4.866;2023-06-26T09:56:28;3.15;;;1.48;;
75898;SDS011;64576;50.460;4.866;2023-06-26T09:58:58;4.18;;;1.40;;
75898;SDS011;64576;50.460;4.866;2023-06-26T10:01:26;3.95;;;1.40;;
75898;SDS011;64576;50.460;4.866;2023-06-26T10:03:52;3.05;;;1.30;;
75898;SDS011;64576;50.460;4.866;2023-06-26T10:06:22;7.57;;;2.42;;
75898;SDS011;64576;50.460;4.866;2023-06-26T10:08:58;4.00;;;1.52;;
75898;SDS011;64576;50.460;4.866;2023-06-26T10:11:26;5.30;;;1.58;;
75898;SDS011;64576;50.460;4.866;2023-06-26T10:14:04;3.95;;;1.70;;
75898;SDS011;64576;50.460;4.866;2023-06-26T10:16:32;4.40;;;1.60;;
75898;SDS011;64576;50.460;4.866;2023-06-26T10:19:01;6.22;;;1.73;;
75898;SDS011;64576;50.460;4.866;2023-06-26T10:21:29;4.72;;;1.70;;
75898;SDS011;64576;50.460;4.866;2023-06-26T10:23:56;3.20;;;1.40;;
75898;SDS011;64576;50.460;4.866;2023-06-26T10:26:23;5.20;;;1.73;;
75898;SDS011;64576;50.460;4.866;2023-06-26T10:28:50;13.82;;;2.35;;
75898;SDS011;64576;50.460;4.866;2023-06-26T10:31:18;6.57;;;1.75;;
75898;SDS011;64576;50.460;4.866;2023-06-26T10:33:49;6.15;;;2.15;;
75898;SDS011;64576;50.460;4.866;2023-06-26T10:36:19;4.85;;;1.50;;
75898;SDS011;64576;50.460;4.866;2023-06-26T10:38:53;3.70;;;1.45;;
75898;SDS011;64576;50.460;4.866;2023-06-26T10:41:23;4.95;;;1.38;;
75898;SDS011;64576;50.460;4.866;2023-06-26T10:43:50;5.47;;;1.80;;
75898;SDS011;64576;50.460;4.866;2023-06-26T10:46:17;2.88;;;1.20;;
75898;SDS011;64576;50.460;4.866;2023-06-26T10:49:00;5.00;;;1.88;;
75898;SDS011;64576;50.460;4.866;2023-06-26T10:51:26;4.47;;;1.88;;
75898;SDS011;64576;50.460;4.866;2023-06-26T10:53:55;3.47;;;1.48;;
75898;SDS011;64576;50.460;4.866;2023-06-26T10:56:21;4.00;;;1.33;;
75898;SDS011;64576;50.460;4.866;2023-06-26T10:59:13;3.63;;;1.30;;
75898;SDS011;64576;50.460;4.866;2023-06-26T11:01:41;7.10;;;1.60;;
75898;SDS011;64576;50.460;4.866;2023-06-26T11:04:10;3.92;;;1.20;;
75898;SDS011;64576;50.460;4.866;2023-06-26T11:06:36;3.30;;;1.30;;
75898;SDS011;64576;50.460;4.866;2023-06-26T11:09:06;4.63;;;1.63;;
75898;SDS011;64576;50.460;4.866;2023-06-26T11:14:18;5.13;;;1.65;;
75898;SDS011;64576;50.460;4.866;2023-06-26T11:16:44;4.63;;;1.55;;
75898;SDS011;64576;50.460;4.866;2023-06-26T11:19:09;6.25;;;2.58;;
75898;SDS011;64576;50.460;4.866;2023-06-26T11:21:37;4.60;;;1.65;;
75898;SDS011;64576;50.460;4.866;2023-06-26T11:24:04;3.15;;;1.70;;
75898;SDS011;64576;50.460;4.866;2023-06-26T11:26:30;5.80;;;1.80;;
75898;SDS011;64576;50.460;4.866;2023-06-26T11:31:30;5.45;;;1.67;;
75898;SDS011;64576;50.460;4.866;2023-06-26T11:33:57;3.72;;;1.52;;
75898;SDS011;64576;50.460;4.866;2023-06-26T11:36:24;2.97;;;1.63;;
75898;SDS011;64576;50.460;4.866;2023-06-26T11:38:57;4.50;;;1.60;;
75898;SDS011;64576;50.460;4.866;2023-06-26T11:41:24;5.57;;;1.63;;
75898;SDS011;64576;50.460;4.866;2023-06-26T11:43:51;4.35;;;1.30;;
75898;SDS011;64576;50.460;4.866;2023-06-26T11:46:17;3.95;;;1.27;;
75898;SDS011;64576;50.460;4.866;2023-06-26T11:48:44;5.97;;;1.55;;
75898;SDS011;64576;50.460;4.866;2023-06-26T11:51:12;3.92;;;1.52;;
75898;SDS011;64576;50.460;4.866;2023-06-26T11:53:42;3.03;;;1.40;;
75898;SDS011;64576;50.460;4.866;2023-06-26T11:56:12;4.50;;;1.85;;
75898;SDS011;64576;50.460;4.866;2023-06-26T11:59:01;3.67;;;1.52;;
75898;SDS011;64576;50.460;4.866;2023-06-26T12:01:43;4.72;;;1.60;;
75898;SDS011;64576;50.460;4.866;2023-06-26T12:04:12;4.10;;;1.73;;
75898;SDS011;64576;50.460;4.866;2023-06-26T12:06:41;7.47;;;1.90;;
75898;SDS011;64576;50.460;4.866;2023-06-26T12:09:10;4.35;;;1.70;;
75898;SDS011;64576;50.460;4.866;2023-06-26T12:11:41;4.20;;;1.70;;
75898;SDS011;64576;50.460;4.866;2023-06-26T12:14:07;6.28;;;2.03;;
75898;SDS011;64576;50.460;4.866;2023-06-26T12:16:34;5.10;;;2.03;;
75898;SDS011;64576;50.460;4.866;2023-06-26T12:19:00;4.40;;;1.73;;
75898;SDS011;64576;50.460;4.866;2023-06-26T12:21:43;3.92;;;1.60;;
75898;SDS011;64576;50.460;4.866;2023-06-26T12:26:46;3.35;;;1.65;;
75898;SDS011;64576;50.460;4.866;2023-06-26T12:29:15;4.20;;;1.77;;
75898;SDS011;64576;50.460;4.866;2023-06-26T12:31:43;3.00;;;1.40;;
75898;SDS011;64576;50.460;4.866;2023-06-26T12:34:14;5.22;;;1.80;;
75898;SDS011;64576;50.460;4.866;2023-06-26T12:36:44;5.05;;;1.85;;
75898;SDS011;64576;50.460;4.866;2023-06-26T12:39:15;3.85;;;1.67;;
75898;SDS011;64576;50.460;4.866;2023-06-26T12:41:45;4.78;;;2.03;;
75898;SDS011;64576;50.460;4.866;2023-06-26T12:44:30;5.80;;;1.90;;
75898;SDS011;64576;50.460;4.866;2023-06-26T12:46:59;7.72;;;1.73;;
75898;SDS011;64576;50.460;4.866;2023-06-26T12:49:49;5.78;;;1.63;;
75898;SDS011;64576;50.460;4.866;2023-06-26T12:52:15;6.10;;;1.80;;
75898;SDS011;64576;50.460;4.866;2023-06-26T12:54:42;4.50;;;1.48;;
75898;SDS011;64576;50.460;4.866;2023-06-26T12:57:08;5.38;;;1.52;;
75898;SDS011;64576;50.460;4.866;2023-06-26T12:59:36;5.10;;;1.42;;
75898;SDS011;64576;50.460;4.866;2023-06-26T13:02:02;5.75;;;1.80;;
75898;SDS011;64576;50.460;4.866;2023-06-26T13:04:28;5.70;;;1.70;;
75898;SDS011;64576;50.460;4.866;2023-06-26T13:06:54;5.97;;;1.58;;
75898;SDS011;64576;50.460;4.866;2023-06-26T13:09:20;4.13;;;1.30;;
75898;SDS011;64576;50.460;4.866;2023-06-26T13:11:46;4.15;;;1.40;;
75898;SDS011;64576;50.460;4.866;2023-06-26T13:14:11;3.53;;;1.50;;
75898;SDS011;64576;50.460;4.866;2023-06-26T13:16:37;6.80;;;1.60;;
75898;SDS011;64576;50.460;4.866;2023-06-26T13:19:03;3.78;;;1.50;;
75898;SDS011;64576;50.460;4.866;2023-06-26T13:21:28;2.88;;;1.33;;
75898;SDS011;64576;50.460;4.866;2023-06-26T13:23:55;4.70;;;2.00;;
75898;SDS011;64576;50.460;4.866;2023-06-26T13:26:21;4.07;;;1.50;;
75898;SDS011;64576;50.460;4.866;2023-06-26T13:28:47;5.60;;;1.45;;
75898;SDS011;64576;50.460;4.866;2023-06-26T13:31:13;5.22;;;1.58;;
75898;SDS011;64576;50.460;4.866;2023-06-26T13:33:39;5.75;;;2.67;;
75898;SDS011;64576;50.460;4.866;2023-06-26T13:36:04;5.10;;;1.73;;
75898;SDS011;64576;50.460;4.866;2023-06-26T13:38:30;4.22;;;1.58;;
75898;SDS011;64576;50.460;4.866;2023-06-26T13:40:57;4.30;;;1.42;;
75898;SDS011;64576;50.460;4.866;2023-06-26T13:43:25;4.90;;;1.60;;
75898;SDS011;64576;50.460;4.866;2023-06-26T13:45:51;6.28;;;1.85;;
75898;SDS011;64576;50.460;4.866;2023-06-26T13:48:16;4.50;;;1.65;;
75898;SDS011;64576;50.460;4.866;2023-06-26T13:50:42;4.10;;;1.58;;
75898;SDS011;64576;50.460;4.866;2023-06-26T13:53:07;3.92;;;1.70;;
75898;SDS011;64576;50.460;4.866;2023-06-26T13:55:33;3.60;;;1.35;;
75898;SDS011;64576;50.460;4.866;2023-06-26T13:57:59;11.48;;;2.00;;
75898;SDS011;64576;50.460;4.866;2023-06-26T14:00:29;3.55;;;1.45;;
75898;SDS011;64576;50.460;4.866;2023-06-26T14:02:54;3.58;;;1.48;;
75898;SDS011;64576;50.460;4.866;2023-06-26T14:05:21;6.15;;;1.85;;
75898;SDS011;64576;50.460;4.866;2023-06-26T14:07:47;4.97;;;1.73;;
75898;SDS011;64576;50.460;4.866;2023-06-26T14:10:12;4.88;;;1.80;;
75898;SDS011;64576;50.460;4.866;2023-06-26T14:12:38;7.05;;;1.70;;
75898;SDS011;64576;50.460;4.866;2023-06-26T14:15:05;5.40;;;1.52;;
75898;SDS011;64576;50.460;4.866;2023-06-26T14:17:30;5.75;;;1.75;;
75898;SDS011;64576;50.460;4.866;2023-06-26T14:19:56;6.00;;;1.60;;
75898;SDS011;64576;50.460;4.866;2023-06-26T14:22:21;4.80;;;1.88;;
75898;SDS011;64576;50.460;4.866;2023-06-26T14:24:47;5.53;;;1.90;;
75898;SDS011;64576;50.460;4.866;2023-06-26T14:27:13;3.00;;;1.15;;
75898;SDS011;64576;50.460;4.866;2023-06-26T14:29:38;8.55;;;1.70;;
75898;SDS011;64576;50.460;4.866;2023-06-26T14:32:04;4.22;;;1.50;;
75898;SDS011;64576;50.460;4.866;2023-06-26T14:34:30;7.93;;;1.67;;
75898;SDS011;64576;50.460;4.866;2023-06-26T14:36:55;4.20;;;1.52;;
75898;SDS011;64576;50.460;4.866;2023-06-26T14:39:21;4.75;;;1.67;;
75898;SDS011;64576;50.460;4.866;2023-06-26T14:41:46;4.95;;;1.80;;
75898;SDS011;64576;50.460;4.866;2023-06-26T14:44:15;3.38;;;1.52;;
75898;SDS011;64576;50.460;4.866;2023-06-26T14:46:40;5.22;;;1.50;;
75898;SDS011;64576;50.460;4.866;2023-06-26T14:49:06;3.88;;;1.73;;
75898;SDS011;64576;50.460;4.866;2023-06-26T14:51:31;3.70;;;1.30;;
75898;SDS011;64576;50.460;4.866;2023-06-26T14:53:57;4.75;;;1.60;;
75898;SDS011;64576;50.460;4.866;2023-06-26T14:56:22;5.45;;;1.88;;
75898;SDS011;64576;50.460;4.866;2023-06-26T14:58:49;6.13;;;1.60;;
75898;SDS011;64576;50.460;4.866;2023-06-26T15:01:16;6.22;;;1.30;;
75898;SDS011;64576;50.460;4.866;2023-06-26T15:03:42;4.15;;;2.00;;